Millboro Springs, Virginia
Current Conditions -  °F | °C
As of 12:55 PM on Thursday 30 Oct 2014 (Local Time) from KHSP Reporting Station
Overcast Overcast  
Wind Chill: 38°   Ceiling: 1900
Heat Index: 41°   Visibility: 10mi
Dew Point: 32°   Wind: 6mph
Humidity: 68%   Direction: 300°WNW
Pressure: 30.03"   Gusts: NA
Location:  38.028°N, 79.6492°W
Report Text: KHSP 301655Z AUTO 30005KT 10SM OVC019 05/00 A3003 RMK AO2 T00521002
Loading
Personal Weather Stations






























Interactive Weather Map
Tropical Storm Tracking
New forecast layout! Learn more

10-Day Weather Forecast

Advertisements
Track Severe Weather on mobile